Little Rock Air Force Base, Arkansas
Current Conditions -  °F | °C
As of 8:58 AM on Wednesday 22 Oct 2014 (Local Time) from KLRF Reporting Station
Clear Clear  
Wind Chill: 55°   Ceiling: Unl
Heat Index: 55°   Visibility: 10mi
Dew Point: 49°   Wind: 9mph
Humidity: 80%   Direction: 70°ENE
Pressure: 30.23"   Gusts: NA
Location:  34.9074°N, 92.1397°W
Report Text: KLRF 221358Z AUTO 07008KT 10SM CLR 13/10 A3023 RMK AO2 VIS 1 RWY07 SLP239 T01300097
Loading
Personal Weather Stations






























Interactive Weather Map
Tropical Storm Tracking
New forecast layout! Learn more

10-Day Weather Forecast

Advertisements
Track Severe Weather on mobile